Terminal Aerodrome Forecast
Issued by NWS Paducah, KY

Home | Current Version | Previous Version | Text Only | Print | Product List | Glossary On
Versions: 1 2 3 4 5 6 7 8 9 10 11 12 13 14 15 16
000
FTUS43 KPAH 261720
TAFPAH
TAF
KPAH 261720Z 2618/2718 VRB03KT 6SM -RA BR SCT050 OVC100
     FM261900 19003KT P6SM FEW050 BKN150
     FM270100 VRB02KT 6SM HZ FEW040 BKN150=

USA.gov is the U.S. government's official web portal to all federal, state and local government web resources and services.